Corpus Christi International Airport
KCRP : now visible

Airfield :











YOU CAN JOIN US ON...

 
LOGIN :

Register | Disclaimer

   EN    FR    IT 

 









Legend :    VFR   Marginal VFR   IFR   Intensive IFR   Very Intensive IFR
Visi :
Ceiling :
>= 8 km
>= 3000ft
5 to 8 km
1000 to 3000 ft
1500m to 5 km
500 to 1000 ft
800 to 1500m
200 to 500 ft
< 800m
< 200 ft
Symbols :   Thunderstorms  Fog  Heavy snow  Heavy precipitations  Wind > 20 kt






- Airport Elevation : 44 ft
- IATA code : CRP


KCRP - Corpus Christi International

CURRENT METAR :
  • 191851Z 05009KT 10SM FEW039 FEW120 SCT200 BKN250 16/00 A3044 RMK AO2 SLP307 T01610000

EXPIRED METARs :
  • 191751Z 04012G20KT 10SM FEW042 SCT120 SCT250 15/01 A3045 RMK AO2 SLP312 T01500006 10150 20089 51006
  • 191651Z 03019G25KT 10SM FEW040 SCT250 13/01 A3045 RMK AO2 PK WND 02027/1607 SLP312 T01330006
  • 191551Z 03020G25KT 10SM FEW040 SCT250 12/01 A3045 RMK AO2 PK WND 04029/1506 SLP312 T01170006

TAF KCRP
Valid from the 19 at 18:00 until the 20 at 18:00 UTC


191720Z 1918/2018 03020G26KT P6SM SCT050
FM200000 04007KT P6SM FEW120
FM201300 03010G17KT P6SM FEW250



MET'MAP, your aeronautical weather chart ! - Copyright ORBIFLY December 2007 - Disclaimer

ORBIFLY MET'MAP TEAM :

Programming & Development : Alexandra Zaïnal
Concept & original design : Baudouin d'Aumeries
Assistance for programming : Marc-Olivier Méhu
Technical & hardware support : Manuel Goepfert

Contact : metmap@orbifly.com




SOURCES & CREDITS :

   NOAA       Earth
Advisory